createdAt,value
2023-02-25T00:01:09.364Z,46.03
2023-02-25T00:03:36.599Z,46.25
2023-02-25T00:06:05.145Z,46.63
2023-02-25T00:08:32.443Z,45.58
2023-02-25T00:11:07.153Z,46.35
2023-02-25T00:16:03.769Z,49.28
2023-02-25T00:18:31.106Z,49.95
2023-02-25T00:20:59.062Z,52.20
2023-02-25T00:23:26.338Z,55.25
2023-02-25T00:26:07.032Z,57.10
2023-02-25T00:28:34.628Z,56.60
2023-02-25T00:31:10.785Z,56.38
2023-02-25T00:33:42.117Z,54.22
2023-02-25T00:36:11.911Z,56.13
2023-02-25T00:38:39.600Z,54.40
2023-02-25T00:41:15.178Z,53.28
2023-02-25T00:43:44.985Z,52.42
2023-02-25T00:46:11.687Z,52.88
2023-02-25T00:48:38.934Z,52.50
2023-02-25T00:51:29.623Z,52.58
2023-02-25T00:53:57.369Z,51.13
2023-02-25T00:56:26.066Z,53.10
2023-02-25T00:58:53.975Z,55.55
2023-02-25T01:01:20.553Z,53.30
2023-02-25T01:03:48.428Z,50.78
2023-02-25T01:06:15.218Z,52.13
2023-02-25T01:08:42.450Z,52.45
2023-02-25T01:11:14.063Z,52.78
2023-02-25T01:13:41.055Z,51.35
2023-02-25T01:16:16.284Z,51.78
2023-02-25T01:18:44.002Z,52.90
2023-02-25T01:21:26.563Z,52.20
2023-02-25T01:23:59.222Z,53.72
2023-02-25T01:26:27.847Z,53.45
2023-02-25T01:28:55.856Z,52.05
2023-02-25T01:31:29.614Z,56.60
2023-02-25T01:34:01.487Z,52.40
2023-02-25T01:36:29.859Z,55.78
2023-02-25T01:38:56.524Z,57.60
2023-02-25T01:41:25.093Z,55.05
2023-02-25T01:44:17.164Z,54.50
2023-02-25T01:46:46.147Z,54.25
2023-02-25T01:49:25.330Z,55.40
2023-02-25T01:51:56.388Z,54.17
2023-02-25T01:54:22.941Z,54.47
2023-02-25T01:56:54.277Z,57.90
2023-02-25T01:59:24.637Z,54.33
2023-02-25T02:01:51.778Z,52.15
2023-02-25T02:04:19.893Z,54.90
2023-02-25T02:06:49.320Z,53.20
2023-02-25T02:09:19.621Z,54.35
2023-02-25T02:11:46.250Z,52.90
2023-02-25T02:14:29.402Z,54.10
2023-02-25T02:17:01.559Z,53.85
2023-02-25T02:19:52.232Z,55.95
2023-02-25T02:22:30.994Z,54.63
2023-02-25T02:25:12.878Z,54.17
2023-02-25T02:28:21.108Z,54.58
2023-02-25T02:30:50.419Z,51.30
2023-02-25T02:33:39.346Z,53.55
2023-02-25T02:36:12.693Z,53.80
2023-02-25T02:38:50.365Z,54.63
2023-02-25T02:41:35.465Z,52.72
2023-02-25T02:46:48.733Z,47.97
2023-02-25T02:49:23.707Z,51.13
2023-02-25T02:51:58.825Z,51.40
2023-02-25T02:54:31.312Z,53.72
2023-02-25T02:56:59.989Z,56.22
2023-02-25T02:59:43.177Z,55.42
2023-02-25T03:02:16.876Z,54.08
2023-02-25T03:04:47.579Z,53.97
2023-02-25T03:07:15.770Z,55.70
2023-02-25T03:10:05.000Z,57.20
2023-02-25T03:12:31.661Z,54.05
2023-02-25T03:14:58.241Z,57.92
2023-02-25T03:17:33.140Z,54.78
2023-02-25T03:20:08.106Z,56.60
2023-02-25T03:22:41.499Z,54.95
2023-02-25T03:25:23.796Z,52.83
2023-02-25T03:27:54.996Z,54.83
2023-02-25T03:30:45.732Z,57.35
2023-02-25T03:33:33.421Z,56.53
2023-02-25T03:36:05.714Z,54.10
2023-02-25T03:38:33.643Z,56.67
2023-02-25T03:41:04.146Z,56.38
2023-02-25T03:43:39.375Z,59.35
2023-02-25T03:46:07.098Z,58.05
2023-02-25T03:48:36.957Z,57.90
2023-02-25T03:51:05.538Z,59.75
2023-02-25T03:53:35.271Z,58.45
2023-02-25T03:56:07.933Z,61.20
2023-02-25T03:58:36.235Z,62.53
2023-02-25T04:01:07.699Z,61.28
2023-02-25T04:03:34.266Z,67.82
2023-02-25T04:06:00.838Z,70.05
2023-02-25T04:08:27.539Z,70.15
2023-02-25T04:10:54.088Z,70.72
2023-02-25T04:13:20.931Z,68.78
2023-02-25T04:15:49.577Z,68.75
2023-02-25T04:18:16.741Z,62.83
2023-02-25T04:20:43.331Z,63.25
2023-02-25T04:23:14.880Z,63.80
2023-02-25T04:25:41.704Z,64.97
2023-02-25T04:28:08.379Z,66.70
2023-02-25T04:30:35.018Z,65.10
2023-02-25T04:33:02.367Z,67.38
2023-02-25T04:35:28.912Z,70.03
2023-02-25T04:37:55.479Z,70.22
2023-02-25T04:40:24.119Z,70.35
2023-02-25T04:42:51.182Z,69.18
2023-02-25T04:45:18.032Z,68.72
2023-02-25T04:47:44.661Z,71.25
2023-02-25T04:50:12.303Z,66.93
2023-02-25T04:52:38.952Z,64.43
2023-02-25T04:55:06.020Z,64.70
2023-02-25T04:57:32.572Z,65.35
2023-02-25T04:59:59.122Z,81.90
2023-02-25T05:02:25.659Z,90.35
2023-02-25T05:04:52.275Z,86.75
2023-02-25T05:07:18.902Z,85.22
2023-02-25T05:09:45.469Z,85.40
2023-02-25T05:12:12.132Z,75.18
2023-02-25T05:14:38.776Z,69.95
2023-02-25T05:17:05.376Z,62.08
2023-02-25T05:19:31.956Z,62.67
2023-02-25T05:21:58.507Z,58.60
2023-02-25T05:24:25.106Z,58.30
2023-02-25T05:26:52.182Z,54.97
2023-02-25T05:29:18.879Z,54.85
2023-02-25T05:31:45.716Z,53.90
2023-02-25T05:34:12.466Z,53.28
2023-02-25T05:36:40.549Z,52.67
2023-02-25T05:39:07.174Z,54.25
2023-02-25T05:41:33.732Z,55.40
2023-02-25T05:44:00.266Z,55.22
2023-02-25T05:46:27.443Z,59.05
2023-02-25T05:48:54.454Z,59.58
2023-02-25T05:51:23.461Z,62.95
2023-02-25T05:53:52.081Z,62.47
2023-02-25T05:56:28.366Z,65.40
2023-02-25T05:58:56.696Z,69.03
2023-02-25T06:01:27.727Z,61.35
2023-02-25T06:03:58.418Z,60.25
2023-02-25T06:06:27.817Z,62.67
2023-02-25T06:08:54.434Z,54.55
2023-02-25T06:11:23.904Z,54.22
2023-02-25T06:13:52.834Z,71.85
2023-02-25T06:16:19.757Z,52.63
2023-02-25T06:18:48.224Z,53.85
2023-02-25T06:21:15.643Z,56.72
2023-02-25T06:23:43.655Z,54.38
2023-02-25T06:26:12.865Z,55.97
2023-02-25T06:28:39.712Z,55.08
2023-02-25T06:31:10.981Z,52.55
2023-02-25T06:33:39.251Z,52.67
2023-02-25T06:36:06.830Z,49.17
2023-02-25T06:38:35.028Z,48.22
2023-02-25T06:41:10.025Z,48.30
2023-02-25T06:43:36.851Z,48.03
2023-02-25T06:46:07.845Z,52.50
2023-02-25T06:48:34.458Z,52.65
2023-02-25T06:51:02.011Z,54.88
2023-02-25T06:53:29.687Z,52.40
2023-02-25T06:55:59.008Z,49.28
2023-02-25T06:58:25.586Z,47.30
2023-02-25T07:00:52.225Z,48.40
2023-02-25T07:03:18.892Z,48.00
2023-02-25T07:05:45.504Z,46.85
2023-02-25T07:08:12.137Z,47.30
2023-02-25T07:10:40.568Z,46.42
2023-02-25T07:13:09.232Z,43.97
2023-02-25T07:15:36.103Z,43.75
2023-02-25T07:18:03.716Z,42.50
2023-02-25T07:20:30.659Z,45.08
2023-02-25T07:22:57.266Z,45.75
2023-02-25T07:25:24.446Z,44.47
2023-02-25T07:27:51.167Z,44.08
2023-02-25T07:30:17.928Z,46.67
2023-02-25T07:32:44.679Z,48.72
2023-02-25T07:35:12.608Z,48.28
2023-02-25T07:37:39.941Z,48.03
2023-02-25T07:40:14.344Z,48.67
2023-02-25T07:42:41.664Z,47.42
2023-02-25T07:45:09.917Z,47.92
2023-02-25T07:47:37.770Z,40.25
2023-02-25T07:50:06.081Z,38.45
2023-02-25T07:52:32.800Z,33.42
2023-02-25T07:54:59.402Z,32.70
2023-02-25T07:57:26.122Z,34.40
2023-02-25T07:59:52.687Z,34.95
2023-02-25T08:02:19.361Z,31.42
2023-02-25T08:04:46.014Z,35.67
2023-02-25T08:07:12.834Z,39.47
2023-02-25T08:09:39.502Z,39.78
2023-02-25T08:12:06.151Z,34.92
2023-02-25T08:14:32.702Z,32.75
2023-02-25T08:17:01.911Z,33.67
2023-02-25T08:19:29.159Z,32.17
2023-02-25T08:21:55.765Z,31.70
2023-02-25T08:24:24.211Z,31.15
2023-02-25T08:26:51.296Z,30.60
2023-02-25T08:29:18.264Z,30.08
2023-02-25T08:31:46.949Z,30.75
2023-02-25T08:34:13.783Z,30.38
2023-02-25T08:36:40.394Z,31.25
2023-02-25T08:39:07.054Z,31.77
2023-02-25T08:41:33.689Z,32.13
2023-02-25T08:44:01.237Z,35.00
2023-02-25T08:46:30.250Z,36.60
2023-02-25T08:48:57.667Z,38.10
2023-02-25T08:51:34.312Z,40.03
2023-02-25T08:54:11.949Z,41.03
2023-02-25T08:56:44.366Z,42.22
2023-02-25T08:59:15.294Z,40.35
2023-02-25T09:01:45.279Z,37.92
2023-02-25T09:04:17.554Z,38.72
2023-02-25T09:06:47.387Z,40.92
2023-02-25T09:09:18.247Z,40.05
2023-02-25T09:11:46.933Z,41.67
2023-02-25T09:14:14.216Z,40.58
2023-02-25T09:16:41.067Z,38.42
2023-02-25T09:19:08.043Z,35.75
2023-02-25T09:21:36.185Z,30.80
2023-02-25T09:24:02.914Z,32.85
2023-02-25T09:26:29.460Z,27.92
2023-02-25T09:28:56.045Z,29.15
2023-02-25T09:31:23.209Z,29.45
2023-02-25T09:33:49.953Z,30.33
2023-02-25T09:36:19.842Z,33.22
2023-02-25T09:38:48.837Z,29.92
2023-02-25T09:41:32.612Z,30.40
2023-02-25T09:44:15.626Z,32.92
2023-02-25T09:46:56.012Z,29.42
2023-02-25T09:49:44.090Z,30.13
2023-02-25T09:52:19.540Z,38.40
2023-02-25T09:54:49.010Z,34.70
2023-02-25T09:57:21.621Z,35.65
2023-02-25T09:59:50.080Z,33.35
2023-02-25T10:02:27.951Z,36.95
2023-02-25T10:05:21.655Z,35.53
2023-02-25T10:08:18.944Z,34.00
2023-02-25T10:10:59.408Z,36.95
2023-02-25T10:13:41.918Z,31.88
2023-02-25T10:16:36.256Z,38.65
2023-02-25T10:19:36.477Z,52.67
2023-02-25T10:22:21.800Z,42.05
2023-02-25T10:24:50.392Z,39.35
2023-02-25T10:27:36.828Z,33.92
2023-02-25T10:30:33.040Z,23.88
2023-02-25T10:33:05.752Z,23.02
2023-02-25T10:35:39.249Z,23.25
2023-02-25T10:38:05.929Z,23.98
2023-02-25T10:40:32.547Z,24.20
2023-02-25T10:43:03.054Z,24.38
2023-02-25T10:45:31.662Z,25.25
2023-02-25T10:48:17.601Z,25.23
2023-02-25T10:51:13.941Z,25.42
2023-02-25T10:54:01.141Z,27.88
2023-02-25T10:56:33.466Z,27.60
2023-02-25T10:59:22.758Z,26.15
2023-02-25T11:01:49.905Z,22.48
2023-02-25T11:04:20.286Z,22.67
2023-02-25T11:06:47.754Z,21.98
2023-02-25T11:09:20.268Z,23.23
2023-02-25T11:12:08.583Z,25.10
2023-02-25T11:14:40.062Z,23.30
2023-02-25T11:17:12.152Z,22.10
2023-02-25T11:19:42.129Z,23.85
2023-02-25T11:22:37.436Z,24.13
2023-02-25T11:27:39.315Z,22.58
2023-02-25T11:30:24.812Z,21.92
2023-02-25T11:32:57.935Z,21.42
2023-02-25T11:35:31.410Z,20.70
2023-02-25T11:37:59.300Z,19.17
2023-02-25T11:40:32.512Z,21.15
2023-02-25T11:43:06.374Z,19.52
2023-02-25T11:45:46.045Z,17.45
2023-02-25T11:48:48.531Z,14.90
2023-02-25T11:51:48.189Z,14.15
2023-02-25T11:54:36.064Z,14.05
2023-02-25T11:57:30.590Z,13.95
2023-02-25T12:00:19.357Z,13.80
2023-02-25T12:03:30.692Z,15.27
2023-02-25T12:06:24.298Z,16.13
2023-02-25T12:09:15.224Z,16.25
2023-02-25T12:12:06.545Z,21.75
2023-02-25T12:14:41.919Z,17.85
2023-02-25T12:17:29.628Z,16.92
2023-02-25T12:20:26.931Z,16.77
2023-02-25T12:23:21.452Z,17.30
2023-02-25T12:26:01.233Z,17.10
2023-02-25T12:29:01.376Z,18.40
2023-02-25T12:31:46.785Z,18.02
2023-02-25T12:35:10.628Z,17.70
2023-02-25T12:37:50.100Z,17.05
2023-02-25T12:40:22.264Z,14.93
2023-02-25T12:43:03.863Z,15.13
2023-02-25T12:45:51.959Z,11.80
2023-02-25T12:48:34.130Z,13.93
2023-02-25T12:51:15.680Z,13.35
2023-02-25T12:54:03.242Z,12.95
2023-02-25T12:57:07.348Z,13.05
2023-02-25T12:59:51.863Z,13.52
2023-02-25T13:05:01.524Z,11.52
2023-02-25T13:07:40.313Z,11.30
2023-02-25T13:10:38.773Z,11.00
2023-02-25T13:13:24.069Z,11.52
2023-02-25T13:16:18.654Z,9.98
2023-02-25T13:19:34.982Z,9.77
2023-02-25T13:22:27.419Z,10.20
2023-02-25T13:25:12.493Z,10.40
2023-02-25T13:27:57.317Z,9.27
2023-02-25T13:30:34.344Z,10.73
2023-02-25T13:33:14.168Z,10.18
2023-02-25T13:36:08.706Z,10.25
2023-02-25T13:38:47.320Z,10.90
2023-02-25T13:41:33.155Z,9.43
2023-02-25T13:44:08.577Z,10.30
2023-02-25T13:46:53.295Z,8.98
2023-02-25T13:49:35.009Z,9.25
2023-02-25T13:52:59.935Z,9.65
2023-02-25T13:55:40.216Z,9.60
2023-02-25T13:58:36.140Z,9.40
2023-02-25T14:01:22.922Z,9.30
2023-02-25T14:04:05.944Z,10.05
2023-02-25T14:06:47.746Z,9.57
2023-02-25T14:09:34.528Z,10.05
2023-02-25T14:12:14.867Z,9.60
2023-02-25T14:15:18.167Z,9.65
2023-02-25T14:18:08.822Z,9.57
2023-02-25T14:21:03.896Z,9.77
2023-02-25T14:23:55.981Z,9.30
2023-02-25T14:26:33.598Z,10.05
2023-02-25T14:29:26.731Z,10.30
2023-02-25T14:32:01.664Z,10.05
2023-02-25T14:34:59.511Z,9.57
2023-02-25T14:37:31.763Z,9.93
2023-02-25T14:40:13.613Z,9.30
2023-02-25T14:43:03.375Z,9.55
2023-02-25T14:45:51.081Z,9.77
2023-02-25T14:48:26.211Z,10.13
2023-02-25T14:51:11.671Z,9.75
2023-02-25T14:54:25.569Z,9.43
2023-02-25T14:56:54.771Z,9.48
2023-02-25T14:59:45.832Z,10.38
2023-02-25T15:02:39.917Z,10.43
2023-02-25T15:05:24.731Z,10.13
2023-02-25T15:08:08.064Z,10.10
2023-02-25T15:10:53.445Z,9.82
2023-02-25T15:13:47.323Z,9.82
2023-02-25T15:16:22.967Z,9.63
2023-02-25T15:19:14.290Z,9.40
2023-02-25T15:21:44.962Z,11.32
2023-02-25T15:24:39.407Z,11.23
2023-02-25T15:27:35.215Z,12.35
2023-02-25T15:30:11.919Z,13.75
2023-02-25T15:32:59.627Z,13.23
2023-02-25T15:35:35.250Z,13.20
2023-02-25T15:38:08.989Z,14.43
2023-02-25T15:40:35.492Z,13.23
2023-02-25T15:43:26.393Z,13.80
2023-02-25T15:46:08.127Z,13.45
2023-02-25T15:48:38.399Z,14.13
2023-02-25T15:51:10.713Z,14.23
2023-02-25T15:53:41.074Z,13.50
2023-02-25T15:56:08.533Z,13.98
2023-02-25T15:58:35.054Z,14.10
2023-02-25T16:01:05.167Z,13.88
2023-02-25T16:03:31.757Z,13.60
2023-02-25T16:06:22.232Z,13.57
2023-02-25T16:09:01.190Z,14.20
2023-02-25T16:11:44.285Z,14.30
2023-02-25T16:14:28.582Z,14.30
2023-02-25T16:17:09.189Z,15.25
2023-02-25T16:19:39.414Z,14.75
2023-02-25T16:22:38.886Z,15.70
2023-02-25T16:25:18.877Z,14.98
2023-02-25T16:27:54.380Z,14.90
2023-02-25T16:30:44.748Z,14.85
2023-02-25T16:33:35.373Z,15.32
2023-02-25T16:36:29.584Z,15.80
2023-02-25T16:39:14.347Z,15.55
2023-02-25T16:41:41.256Z,16.75
2023-02-25T16:44:08.540Z,16.30
2023-02-25T16:46:39.313Z,16.20
2023-02-25T16:49:18.114Z,16.63
2023-02-25T16:51:45.342Z,16.52
2023-02-25T16:54:24.813Z,16.70
2023-02-25T16:56:58.055Z,17.35
2023-02-25T16:59:24.831Z,16.55
2023-02-25T17:02:02.577Z,18.85
2023-02-25T17:04:33.128Z,18.02
2023-02-25T17:07:13.605Z,17.92
2023-02-25T17:09:56.724Z,18.25
2023-02-25T17:12:40.827Z,18.60
2023-02-25T17:15:19.321Z,18.45
2023-02-25T17:17:48.869Z,18.70
2023-02-25T17:20:22.886Z,19.00
2023-02-25T17:22:50.386Z,18.65
2023-02-25T17:25:18.314Z,19.25
2023-02-25T17:27:48.931Z,21.13
2023-02-25T17:30:34.859Z,22.27
2023-02-25T17:33:01.959Z,20.58
2023-02-25T17:35:29.348Z,21.42
2023-02-25T17:37:57.192Z,21.17
2023-02-25T17:40:28.912Z,21.60
2023-02-25T17:43:17.946Z,22.75
2023-02-25T17:45:51.763Z,23.13
2023-02-25T17:48:22.431Z,21.93
2023-02-25T17:51:10.867Z,22.92
2023-02-25T17:54:18.270Z,24.13
2023-02-25T17:56:54.596Z,22.45
2023-02-25T17:59:41.640Z,21.75
2023-02-25T18:02:37.912Z,21.90
2023-02-25T18:05:11.128Z,22.77
2023-02-25T18:07:58.589Z,22.73
2023-02-25T18:10:31.414Z,23.10
2023-02-25T18:13:03.379Z,22.70
2023-02-25T18:15:33.222Z,23.30
2023-02-25T18:18:07.348Z,23.77
2023-02-25T18:20:42.304Z,25.55
2023-02-25T18:23:21.129Z,26.80
2023-02-25T18:26:09.268Z,26.55
2023-02-25T18:28:35.975Z,27.42
2023-02-25T18:31:02.664Z,27.63
2023-02-25T18:33:29.270Z,25.73
2023-02-25T18:35:57.537Z,28.02
2023-02-25T18:38:26.530Z,27.48
2023-02-25T18:40:54.344Z,28.52
2023-02-25T18:43:28.925Z,29.33
2023-02-25T18:48:21.969Z,28.58
2023-02-25T18:50:48.697Z,28.85
2023-02-25T18:53:18.136Z,27.90
2023-02-25T18:55:44.703Z,29.05
2023-02-25T18:58:16.572Z,29.92
2023-02-25T19:00:46.174Z,30.65
2023-02-25T19:03:21.932Z,28.92
2023-02-25T19:05:48.537Z,29.83
2023-02-25T19:08:17.533Z,31.02
2023-02-25T19:10:44.591Z,29.35
2023-02-25T19:13:24.976Z,29.58
2023-02-25T19:15:51.584Z,28.27
2023-02-25T19:18:18.392Z,27.02
2023-02-25T19:20:45.095Z,26.50
2023-02-25T19:23:13.890Z,25.95
2023-02-25T19:25:41.855Z,24.90
2023-02-25T19:28:08.980Z,24.05
2023-02-25T19:30:39.824Z,22.55
2023-02-25T19:33:08.228Z,23.25
2023-02-25T19:35:37.444Z,22.63
2023-02-25T19:38:05.998Z,22.75
2023-02-25T19:40:33.350Z,23.17
2023-02-25T19:42:59.925Z,23.27
2023-02-25T19:45:27.635Z,24.05
2023-02-25T19:47:55.122Z,23.13
2023-02-25T19:50:24.790Z,22.95
2023-02-25T19:52:53.319Z,24.20
2023-02-25T19:55:20.365Z,22.65
2023-02-25T19:57:47.273Z,22.75
2023-02-25T20:00:19.892Z,23.52
2023-02-25T20:02:46.886Z,22.95
2023-02-25T20:05:14.619Z,23.17
2023-02-25T20:07:42.186Z,23.13
2023-02-25T20:10:11.054Z,23.60
2023-02-25T20:12:39.323Z,23.75
2023-02-25T20:15:07.277Z,24.67
2023-02-25T20:17:36.756Z,24.42
2023-02-25T20:20:04.311Z,25.10
2023-02-25T20:22:31.007Z,25.25
2023-02-25T20:24:57.571Z,23.02
2023-02-25T20:27:24.436Z,23.55
2023-02-25T20:29:50.974Z,23.85
2023-02-25T20:32:17.792Z,22.98
2023-02-25T20:34:44.581Z,22.92
2023-02-25T20:37:23.240Z,23.60
2023-02-25T20:39:55.107Z,24.55
2023-02-25T20:42:24.449Z,22.88
2023-02-25T20:44:52.319Z,23.70
2023-02-25T20:47:27.240Z,23.95
2023-02-25T20:49:55.411Z,23.77
2023-02-25T20:52:22.544Z,23.90
2023-02-25T20:54:52.515Z,23.90
2023-02-25T20:57:21.307Z,23.33
2023-02-25T20:59:48.613Z,23.80
2023-02-25T21:02:16.780Z,24.13
2023-02-25T21:04:44.232Z,24.48
2023-02-25T21:07:11.151Z,24.35
2023-02-25T21:09:37.760Z,23.05
2023-02-25T21:12:04.979Z,26.95
2023-02-25T21:14:31.563Z,25.63
2023-02-25T21:16:58.112Z,25.17
2023-02-25T21:19:28.124Z,25.73
2023-02-25T21:21:56.149Z,26.05
2023-02-25T21:24:23.048Z,26.35
2023-02-25T21:26:49.780Z,28.05
2023-02-25T21:29:16.544Z,35.47
2023-02-25T21:31:44.046Z,27.13
2023-02-25T21:34:13.085Z,29.75
2023-02-25T21:36:41.032Z,28.02
2023-02-25T21:39:09.359Z,28.10
2023-02-25T21:41:38.281Z,27.05
2023-02-25T21:44:05.076Z,26.92
2023-02-25T21:46:31.753Z,27.75
2023-02-25T21:48:59.560Z,27.70
2023-02-25T21:51:28.302Z,29.17
2023-02-25T21:54:00.332Z,29.25
2023-02-25T21:56:28.128Z,26.77
2023-02-25T21:58:56.893Z,27.50
2023-02-25T22:01:26.175Z,26.65
2023-02-25T22:03:53.244Z,26.48
2023-02-25T22:06:23.725Z,26.00
2023-02-25T22:08:50.976Z,25.42
2023-02-25T22:11:21.083Z,27.63
2023-02-25T22:13:48.419Z,26.42
2023-02-25T22:16:15.727Z,25.67
2023-02-25T22:18:42.961Z,25.77
2023-02-25T22:21:16.772Z,25.33
2023-02-25T22:23:43.897Z,26.07
2023-02-25T22:26:13.244Z,27.00
2023-02-25T22:28:42.977Z,27.27
2023-02-25T22:31:12.138Z,26.65
2023-02-25T22:33:39.774Z,25.73
2023-02-25T22:36:07.885Z,28.13
2023-02-25T22:38:40.747Z,25.27
2023-02-25T22:41:13.101Z,26.35
2023-02-25T22:43:39.967Z,26.42
2023-02-25T22:46:13.010Z,26.05
2023-02-25T22:48:41.024Z,26.45
2023-02-25T22:51:09.431Z,26.00
2023-02-25T22:53:37.545Z,26.02
2023-02-25T22:56:06.843Z,26.67
2023-02-25T22:58:33.674Z,26.67
2023-02-25T23:01:00.425Z,27.10
2023-02-25T23:03:27.014Z,27.48
2023-02-25T23:05:54.751Z,26.00
2023-02-25T23:08:22.826Z,26.80
2023-02-25T23:10:49.853Z,26.17
2023-02-25T23:13:16.559Z,25.90
2023-02-25T23:15:47.466Z,27.27
2023-02-25T23:18:15.394Z,27.55
2023-02-25T23:20:42.584Z,25.90
2023-02-25T23:23:09.634Z,27.52
2023-02-25T23:25:39.449Z,27.42
2023-02-25T23:28:07.860Z,26.17
2023-02-25T23:30:37.864Z,27.17
2023-02-25T23:33:05.163Z,26.52
2023-02-25T23:35:32.823Z,27.60
2023-02-25T23:38:01.278Z,27.20
2023-02-25T23:40:28.943Z,27.33
2023-02-25T23:42:56.097Z,28.20
2023-02-25T23:45:22.995Z,27.85
2023-02-25T23:47:49.707Z,27.70
2023-02-25T23:50:17.719Z,27.33
2023-02-25T23:52:46.241Z,27.85
2023-02-25T23:55:15.229Z,28.08
2023-02-25T23:57:42.112Z,27.20
